sensor_id;sensor_type;location;lat;lon;timestamp;temperature;humidity
11095;DHT22;5601;44.490;11.400;2022-11-15T00:00:59;8.20;99.90
11095;DHT22;5601;44.490;11.400;2022-11-15T00:03:26;8.20;99.90
11095;DHT22;5601;44.490;11.400;2022-11-15T00:05:55;8.30;99.90
11095;DHT22;5601;44.490;11.400;2022-11-15T00:08:28;8.30;99.90
11095;DHT22;5601;44.490;11.400;2022-11-15T00:10:56;8.30;99.90
11095;DHT22;5601;44.490;11.400;2022-11-15T00:13:24;8.30;99.90
11095;DHT22;5601;44.490;11.400;2022-11-15T00:15:51;8.30;99.90
11095;DHT22;5601;44.490;11.400;2022-11-15T00:18:22;8.30;99.90
11095;DHT22;5601;44.490;11.400;2022-11-15T00:20:49;8.30;99.90
11095;DHT22;5601;44.490;11.400;2022-11-15T00:23:17;8.30;99.90
11095;DHT22;5601;44.490;11.400;2022-11-15T00:25:44;8.30;99.90
11095;DHT22;5601;44.490;11.400;2022-11-15T00:28:12;8.30;99.90
11095;DHT22;5601;44.490;11.400;2022-11-15T00:30:39;8.30;99.90
11095;DHT22;5601;44.490;11.400;2022-11-15T00:33:08;8.30;99.90
11095;DHT22;5601;44.490;11.400;2022-11-15T00:35:37;8.20;99.90
11095;DHT22;5601;44.490;11.400;2022-11-15T00:38:07;8.20;99.90
11095;DHT22;5601;44.490;11.400;2022-11-15T00:40:35;8.20;99.90
11095;DHT22;5601;44.490;11.400;2022-11-15T00:43:03;8.20;99.90
11095;DHT22;5601;44.490;11.400;2022-11-15T00:45:30;8.20;99.90
11095;DHT22;5601;44.490;11.400;2022-11-15T00:47:57;8.10;99.90
11095;DHT22;5601;44.490;11.400;2022-11-15T00:50:24;8.10;99.90
11095;DHT22;5601;44.490;11.400;2022-11-15T00:52:54;8.00;99.90
11095;DHT22;5601;44.490;11.400;2022-11-15T00:55:21;8.00;99.90
11095;DHT22;5601;44.490;11.400;2022-11-15T00:57:48;8.00;99.90
11095;DHT22;5601;44.490;11.400;2022-11-15T01:00:16;7.90;99.90
11095;DHT22;5601;44.490;11.400;2022-11-15T01:02:44;7.90;99.90
11095;DHT22;5601;44.490;11.400;2022-11-15T01:05:12;7.90;99.90
11095;DHT22;5601;44.490;11.400;2022-11-15T01:07:39;7.80;99.90
11095;DHT22;5601;44.490;11.400;2022-11-15T01:10:09;7.90;99.90
11095;DHT22;5601;44.490;11.400;2022-11-15T01:12:36;7.90;99.90
11095;DHT22;5601;44.490;11.400;2022-11-15T01:15:04;7.90;99.90
11095;DHT22;5601;44.490;11.400;2022-11-15T01:17:32;7.90;99.90
11095;DHT22;5601;44.490;11.400;2022-11-15T01:20:00;7.90;99.90
11095;DHT22;5601;44.490;11.400;2022-11-15T01:22:28;7.90;99.90
11095;DHT22;5601;44.490;11.400;2022-11-15T01:24:55;7.90;99.90
11095;DHT22;5601;44.490;11.400;2022-11-15T01:27:25;7.90;99.90
11095;DHT22;5601;44.490;11.400;2022-11-15T01:29:55;8.00;99.90
11095;DHT22;5601;44.490;11.400;2022-11-15T01:32:23;8.00;99.90
11095;DHT22;5601;44.490;11.400;2022-11-15T01:34:51;8.00;99.90
11095;DHT22;5601;44.490;11.400;2022-11-15T01:37:18;8.00;99.90
11095;DHT22;5601;44.490;11.400;2022-11-15T01:39:46;8.00;99.90
11095;DHT22;5601;44.490;11.400;2022-11-15T01:42:13;8.00;99.90
11095;DHT22;5601;44.490;11.400;2022-11-15T01:44:43;8.00;99.90
11095;DHT22;5601;44.490;11.400;2022-11-15T01:47:13;8.00;99.90
11095;DHT22;5601;44.490;11.400;2022-11-15T01:49:42;8.00;99.90
11095;DHT22;5601;44.490;11.400;2022-11-15T01:52:14;8.00;99.90
11095;DHT22;5601;44.490;11.400;2022-11-15T01:54:42;8.00;99.90
11095;DHT22;5601;44.490;11.400;2022-11-15T01:57:10;7.90;99.90
11095;DHT22;5601;44.490;11.400;2022-11-15T01:59:40;7.90;99.90
11095;DHT22;5601;44.490;11.400;2022-11-15T02:02:10;7.90;99.90
11095;DHT22;5601;44.490;11.400;2022-11-15T02:04:37;7.90;99.90
11095;DHT22;5601;44.490;11.400;2022-11-15T02:07:06;7.90;99.90
11095;DHT22;5601;44.490;11.400;2022-11-15T02:09:36;7.80;99.90
11095;DHT22;5601;44.490;11.400;2022-11-15T02:12:04;7.90;99.90
11095;DHT22;5601;44.490;11.400;2022-11-15T02:14:31;7.90;99.90
11095;DHT22;5601;44.490;11.400;2022-11-15T02:17:02;7.90;99.90
11095;DHT22;5601;44.490;11.400;2022-11-15T02:19:52;7.90;99.90
11095;DHT22;5601;44.490;11.400;2022-11-15T02:22:35;7.90;99.90
11095;DHT22;5601;44.490;11.400;2022-11-15T02:25:08;7.90;99.90
11095;DHT22;5601;44.490;11.400;2022-11-15T02:27:43;7.90;99.90
11095;DHT22;5601;44.490;11.400;2022-11-15T02:30:18;7.90;99.90
11095;DHT22;5601;44.490;11.400;2022-11-15T02:32:47;7.90;99.90
11095;DHT22;5601;44.490;11.400;2022-11-15T02:35:16;7.90;99.90
11095;DHT22;5601;44.490;11.400;2022-11-15T02:37:46;7.90;99.90
11095;DHT22;5601;44.490;11.400;2022-11-15T02:40:17;7.90;99.90
11095;DHT22;5601;44.490;11.400;2022-11-15T02:42:47;7.90;99.90
11095;DHT22;5601;44.490;11.400;2022-11-15T02:45:35;7.90;99.90
11095;DHT22;5601;44.490;11.400;2022-11-15T02:48:04;7.90;99.90
11095;DHT22;5601;44.490;11.400;2022-11-15T02:50:33;7.90;99.90
11095;DHT22;5601;44.490;11.400;2022-11-15T02:53:01;7.80;99.90
11095;DHT22;5601;44.490;11.400;2022-11-15T02:55:30;7.80;99.90
11095;DHT22;5601;44.490;11.400;2022-11-15T02:58:01;7.70;99.90
11095;DHT22;5601;44.490;11.400;2022-11-15T03:00:35;7.70;99.90
11095;DHT22;5601;44.490;11.400;2022-11-15T03:03:15;7.70;99.90
11095;DHT22;5601;44.490;11.400;2022-11-15T03:05:46;7.60;99.90
11095;DHT22;5601;44.490;11.400;2022-11-15T03:08:17;7.50;99.90
11095;DHT22;5601;44.490;11.400;2022-11-15T03:10:46;7.50;99.90
11095;DHT22;5601;44.490;11.400;2022-11-15T03:13:19;7.50;99.90
11095;DHT22;5601;44.490;11.400;2022-11-15T03:15:52;7.50;99.90
11095;DHT22;5601;44.490;11.400;2022-11-15T03:18:24;7.40;99.90
11095;DHT22;5601;44.490;11.400;2022-11-15T03:20:55;7.40;99.90
11095;DHT22;5601;44.490;11.400;2022-11-15T03:23:23;7.40;99.90
11095;DHT22;5601;44.490;11.400;2022-11-15T03:25:51;7.40;99.90
11095;DHT22;5601;44.490;11.400;2022-11-15T03:28:20;7.30;99.90
11095;DHT22;5601;44.490;11.400;2022-11-15T03:30:51;7.30;99.90
11095;DHT22;5601;44.490;11.400;2022-11-15T03:33:19;7.30;99.90
11095;DHT22;5601;44.490;11.400;2022-11-15T03:35:48;7.20;99.90
11095;DHT22;5601;44.490;11.400;2022-11-15T03:38:17;7.20;99.90
11095;DHT22;5601;44.490;11.400;2022-11-15T03:40:47;7.20;99.90
11095;DHT22;5601;44.490;11.400;2022-11-15T03:43:20;7.20;99.90
11095;DHT22;5601;44.490;11.400;2022-11-15T03:45:53;7.20;99.90
11095;DHT22;5601;44.490;11.400;2022-11-15T03:48:22;7.20;99.90
11095;DHT22;5601;44.490;11.400;2022-11-15T03:50:51;7.20;99.90
11095;DHT22;5601;44.490;11.400;2022-11-15T03:53:19;7.10;99.90
11095;DHT22;5601;44.490;11.400;2022-11-15T03:55:47;7.00;99.90
11095;DHT22;5601;44.490;11.400;2022-11-15T03:58:15;7.00;99.90
11095;DHT22;5601;44.490;11.400;2022-11-15T04:00:43;7.00;99.90
11095;DHT22;5601;44.490;11.400;2022-11-15T04:03:12;7.00;99.90
11095;DHT22;5601;44.490;11.400;2022-11-15T04:05:40;7.00;99.90
11095;DHT22;5601;44.490;11.400;2022-11-15T04:08:07;6.90;99.90
11095;DHT22;5601;44.490;11.400;2022-11-15T04:10:35;6.90;99.90
11095;DHT22;5601;44.490;11.400;2022-11-15T04:13:02;6.90;99.90
11095;DHT22;5601;44.490;11.400;2022-11-15T04:15:30;6.80;99.90
11095;DHT22;5601;44.490;11.400;2022-11-15T04:17:57;6.80;99.90
11095;DHT22;5601;44.490;11.400;2022-11-15T04:20:28;6.80;99.90
11095;DHT22;5601;44.490;11.400;2022-11-15T04:23:14;6.80;99.90
11095;DHT22;5601;44.490;11.400;2022-11-15T04:25:59;6.80;99.90
11095;DHT22;5601;44.490;11.400;2022-11-15T04:28:26;6.90;99.90
11095;DHT22;5601;44.490;11.400;2022-11-15T04:30:53;6.90;99.90
11095;DHT22;5601;44.490;11.400;2022-11-15T04:33:22;7.00;99.90
11095;DHT22;5601;44.490;11.400;2022-11-15T04:35:51;7.00;99.90
11095;DHT22;5601;44.490;11.400;2022-11-15T04:38:32;7.10;99.90
11095;DHT22;5601;44.490;11.400;2022-11-15T04:40:59;7.10;99.90
11095;DHT22;5601;44.490;11.400;2022-11-15T04:43:26;7.10;99.90
11095;DHT22;5601;44.490;11.400;2022-11-15T04:45:54;7.10;99.90
11095;DHT22;5601;44.490;11.400;2022-11-15T04:48:22;7.10;99.90
11095;DHT22;5601;44.490;11.400;2022-11-15T04:50:51;7.00;99.90
11095;DHT22;5601;44.490;11.400;2022-11-15T04:53:19;7.00;99.90
11095;DHT22;5601;44.490;11.400;2022-11-15T04:55:47;6.90;99.90
11095;DHT22;5601;44.490;11.400;2022-11-15T04:58:14;6.90;99.90
11095;DHT22;5601;44.490;11.400;2022-11-15T05:00:42;6.90;99.90
11095;DHT22;5601;44.490;11.400;2022-11-15T05:03:11;6.90;99.90
11095;DHT22;5601;44.490;11.400;2022-11-15T05:06:07;7.00;99.90
11095;DHT22;5601;44.490;11.400;2022-11-15T05:08:34;7.00;99.90
11095;DHT22;5601;44.490;11.400;2022-11-15T05:11:02;7.00;99.90
11095;DHT22;5601;44.490;11.400;2022-11-15T05:13:29;7.10;99.90
11095;DHT22;5601;44.490;11.400;2022-11-15T05:15:58;7.20;99.90
11095;DHT22;5601;44.490;11.400;2022-11-15T05:18:26;7.20;99.90
11095;DHT22;5601;44.490;11.400;2022-11-15T05:20:53;7.30;99.90
11095;DHT22;5601;44.490;11.400;2022-11-15T05:23:22;7.30;99.90
11095;DHT22;5601;44.490;11.400;2022-11-15T05:25:53;7.40;99.90
11095;DHT22;5601;44.490;11.400;2022-11-15T05:28:21;7.40;99.90
11095;DHT22;5601;44.490;11.400;2022-11-15T05:30:48;7.40;99.90
11095;DHT22;5601;44.490;11.400;2022-11-15T05:33:16;7.50;99.90
11095;DHT22;5601;44.490;11.400;2022-11-15T05:35:45;7.50;99.90
11095;DHT22;5601;44.490;11.400;2022-11-15T05:38:13;7.60;99.90
11095;DHT22;5601;44.490;11.400;2022-11-15T05:40:43;7.60;99.90
11095;DHT22;5601;44.490;11.400;2022-11-15T05:43:11;7.70;99.90
11095;DHT22;5601;44.490;11.400;2022-11-15T05:45:39;7.70;99.90
11095;DHT22;5601;44.490;11.400;2022-11-15T05:48:06;7.70;99.90
11095;DHT22;5601;44.490;11.400;2022-11-15T05:50:36;7.80;99.90
11095;DHT22;5601;44.490;11.400;2022-11-15T05:53:04;7.70;99.90
11095;DHT22;5601;44.490;11.400;2022-11-15T05:55:32;7.80;99.90
11095;DHT22;5601;44.490;11.400;2022-11-15T05:58:01;7.80;99.90
11095;DHT22;5601;44.490;11.400;2022-11-15T06:00:28;7.80;99.90
11095;DHT22;5601;44.490;11.400;2022-11-15T06:02:56;7.80;99.90
11095;DHT22;5601;44.490;11.400;2022-11-15T06:05:23;7.80;99.90
11095;DHT22;5601;44.490;11.400;2022-11-15T06:07:50;7.90;99.90
11095;DHT22;5601;44.490;11.400;2022-11-15T06:10:17;7.80;99.90
11095;DHT22;5601;44.490;11.400;2022-11-15T06:12:45;7.80;99.90
11095;DHT22;5601;44.490;11.400;2022-11-15T06:15:14;7.70;99.90
11095;DHT22;5601;44.490;11.400;2022-11-15T06:17:41;7.70;99.90
11095;DHT22;5601;44.490;11.400;2022-11-15T06:20:09;7.80;99.90
11095;DHT22;5601;44.490;11.400;2022-11-15T06:22:37;7.80;99.90
11095;DHT22;5601;44.490;11.400;2022-11-15T06:25:04;7.90;99.90
11095;DHT22;5601;44.490;11.400;2022-11-15T06:27:32;7.90;99.90
11095;DHT22;5601;44.490;11.400;2022-11-15T06:29:59;7.90;99.90
11095;DHT22;5601;44.490;11.400;2022-11-15T06:32:30;7.90;99.90
11095;DHT22;5601;44.490;11.400;2022-11-15T06:34:57;8.00;99.90
11095;DHT22;5601;44.490;11.400;2022-11-15T06:37:25;8.00;99.90
11095;DHT22;5601;44.490;11.400;2022-11-15T06:39:52;8.10;99.90
11095;DHT22;5601;44.490;11.400;2022-11-15T06:42:20;8.20;99.90
11095;DHT22;5601;44.490;11.400;2022-11-15T06:44:47;8.20;99.90
11095;DHT22;5601;44.490;11.400;2022-11-15T06:47:15;8.30;99.90
11095;DHT22;5601;44.490;11.400;2022-11-15T06:49:44;8.40;99.90
11095;DHT22;5601;44.490;11.400;2022-11-15T06:52:12;8.40;99.90
11095;DHT22;5601;44.490;11.400;2022-11-15T06:54:39;8.50;99.90
11095;DHT22;5601;44.490;11.400;2022-11-15T06:57:07;8.50;99.90
11095;DHT22;5601;44.490;11.400;2022-11-15T06:59:34;8.50;99.90
11095;DHT22;5601;44.490;11.400;2022-11-15T07:02:01;8.50;99.90
11095;DHT22;5601;44.490;11.400;2022-11-15T07:04:29;8.50;99.90
11095;DHT22;5601;44.490;11.400;2022-11-15T07:06:58;8.50;99.90
11095;DHT22;5601;44.490;11.400;2022-11-15T07:09:25;8.50;99.90
11095;DHT22;5601;44.490;11.400;2022-11-15T07:11:53;8.50;99.90
11095;DHT22;5601;44.490;11.400;2022-11-15T07:14:20;8.50;99.90
11095;DHT22;5601;44.490;11.400;2022-11-15T07:16:47;8.60;99.90
11095;DHT22;5601;44.490;11.400;2022-11-15T07:19:14;8.60;99.90
11095;DHT22;5601;44.490;11.400;2022-11-15T07:21:41;8.70;99.90
11095;DHT22;5601;44.490;11.400;2022-11-15T07:24:09;8.70;99.90
11095;DHT22;5601;44.490;11.400;2022-11-15T07:26:37;8.80;99.90
11095;DHT22;5601;44.490;11.400;2022-11-15T07:29:04;8.80;99.90
11095;DHT22;5601;44.490;11.400;2022-11-15T07:31:31;8.80;99.90
11095;DHT22;5601;44.490;11.400;2022-11-15T07:33:58;8.80;99.90
11095;DHT22;5601;44.490;11.400;2022-11-15T07:36:25;8.80;99.90
11095;DHT22;5601;44.490;11.400;2022-11-15T07:38:52;8.80;99.90
11095;DHT22;5601;44.490;11.400;2022-11-15T07:41:21;8.90;99.90
11095;DHT22;5601;44.490;11.400;2022-11-15T07:43:50;8.90;99.90
11095;DHT22;5601;44.490;11.400;2022-11-15T07:46:17;9.00;99.90
11095;DHT22;5601;44.490;11.400;2022-11-15T07:48:45;9.00;99.90
11095;DHT22;5601;44.490;11.400;2022-11-15T10:03:33;11.30;99.90
11095;DHT22;5601;44.490;11.400;2022-11-15T10:06:03;11.50;99.90
11095;DHT22;5601;44.490;11.400;2022-11-15T10:08:33;11.60;99.90
11095;DHT22;5601;44.490;11.400;2022-11-15T10:11:03;11.70;99.90
11095;DHT22;5601;44.490;11.400;2022-11-15T10:13:32;11.80;99.90
11095;DHT22;5601;44.490;11.400;2022-11-15T10:16:03;11.90;99.90
11095;DHT22;5601;44.490;11.400;2022-11-15T10:18:34;11.80;99.90
11095;DHT22;5601;44.490;11.400;2022-11-15T10:21:02;11.90;99.90
11095;DHT22;5601;44.490;11.400;2022-11-15T10:23:38;12.00;99.90
11095;DHT22;5601;44.490;11.400;2022-11-15T10:26:07;12.20;99.90
11095;DHT22;5601;44.490;11.400;2022-11-15T10:28:37;12.30;99.90
11095;DHT22;5601;44.490;11.400;2022-11-15T10:31:10;12.50;99.90
11095;DHT22;5601;44.490;11.400;2022-11-15T10:33:48;12.50;99.90
11095;DHT22;5601;44.490;11.400;2022-11-15T10:36:17;12.60;99.90
11095;DHT22;5601;44.490;11.400;2022-11-15T10:38:51;12.60;99.90
11095;DHT22;5601;44.490;11.400;2022-11-15T10:41:19;12.70;99.90
11095;DHT22;5601;44.490;11.400;2022-11-15T10:44:00;12.60;99.90
11095;DHT22;5601;44.490;11.400;2022-11-15T10:46:28;12.60;99.90
11095;DHT22;5601;44.490;11.400;2022-11-15T10:49:03;12.60;99.90
11095;DHT22;5601;44.490;11.400;2022-11-15T10:51:40;12.60;99.90
11095;DHT22;5601;44.490;11.400;2022-11-15T10:54:08;12.60;99.90
11095;DHT22;5601;44.490;11.400;2022-11-15T10:56:37;12.60;99.90
11095;DHT22;5601;44.490;11.400;2022-11-15T10:59:04;12.50;99.90
11095;DHT22;5601;44.490;11.400;2022-11-15T11:01:32;12.50;99.90
11095;DHT22;5601;44.490;11.400;2022-11-15T11:04:13;12.50;99.90
11095;DHT22;5601;44.490;11.400;2022-11-15T11:06:47;12.40;99.90
11095;DHT22;5601;44.490;11.400;2022-11-15T11:09:28;12.40;99.90
11095;DHT22;5601;44.490;11.400;2022-11-15T11:11:57;12.50;99.90
11095;DHT22;5601;44.490;11.400;2022-11-15T11:14:25;12.50;99.90
11095;DHT22;5601;44.490;11.400;2022-11-15T11:16:57;12.50;99.90
11095;DHT22;5601;44.490;11.400;2022-11-15T11:22:15;12.50;99.90
11095;DHT22;5601;44.490;11.400;2022-11-15T11:24:44;12.50;99.90
11095;DHT22;5601;44.490;11.400;2022-11-15T11:27:13;12.50;99.90
11095;DHT22;5601;44.490;11.400;2022-11-15T11:29:47;12.50;99.90
11095;DHT22;5601;44.490;11.400;2022-11-15T11:32:28;12.60;99.90
11095;DHT22;5601;44.490;11.400;2022-11-15T11:34:58;12.60;99.90
11095;DHT22;5601;44.490;11.400;2022-11-15T11:37:31;12.60;99.90
11095;DHT22;5601;44.490;11.400;2022-11-15T11:40:03;12.50;99.90
11095;DHT22;5601;44.490;11.400;2022-11-15T11:42:35;12.50;99.90
11095;DHT22;5601;44.490;11.400;2022-11-15T11:45:10;12.50;99.90
11095;DHT22;5601;44.490;11.400;2022-11-15T11:47:43;12.50;99.90
11095;DHT22;5601;44.490;11.400;2022-11-15T11:50:13;12.60;99.90
11095;DHT22;5601;44.490;11.400;2022-11-15T11:52:44;12.50;99.90
11095;DHT22;5601;44.490;11.400;2022-11-15T11:55:18;12.40;99.90
11095;DHT22;5601;44.490;11.400;2022-11-15T11:57:48;12.50;99.90
11095;DHT22;5601;44.490;11.400;2022-11-15T12:00:17;12.50;99.90
11095;DHT22;5601;44.490;11.400;2022-11-15T12:03:01;12.40;99.90
11095;DHT22;5601;44.490;11.400;2022-11-15T12:05:30;12.50;99.90
11095;DHT22;5601;44.490;11.400;2022-11-15T12:08:01;12.50;99.90
11095;DHT22;5601;44.490;11.400;2022-11-15T12:10:30;12.40;99.90
11095;DHT22;5601;44.490;11.400;2022-11-15T12:13:00;12.30;99.90
11095;DHT22;5601;44.490;11.400;2022-11-15T12:15:29;12.10;99.90
11095;DHT22;5601;44.490;11.400;2022-11-15T12:17:58;12.00;99.90
11095;DHT22;5601;44.490;11.400;2022-11-15T12:20:27;11.90;99.90
11095;DHT22;5601;44.490;11.400;2022-11-15T12:22:56;11.80;99.90
11095;DHT22;5601;44.490;11.400;2022-11-15T12:25:27;11.80;99.90
11095;DHT22;5601;44.490;11.400;2022-11-15T12:27:57;11.80;99.90
11095;DHT22;5601;44.490;11.400;2022-11-15T12:30:38;11.70;99.90
11095;DHT22;5601;44.490;11.400;2022-11-15T12:33:15;11.60;99.90
11095;DHT22;5601;44.490;11.400;2022-11-15T12:35:57;11.60;99.90
11095;DHT22;5601;44.490;11.400;2022-11-15T12:41:16;11.50;99.90
11095;DHT22;5601;44.490;11.400;2022-11-15T12:43:44;11.50;99.90
11095;DHT22;5601;44.490;11.400;2022-11-15T12:46:18;11.50;99.90
11095;DHT22;5601;44.490;11.400;2022-11-15T12:48:51;11.50;99.90
11095;DHT22;5601;44.490;11.400;2022-11-15T12:51:19;11.50;99.90
11095;DHT22;5601;44.490;11.400;2022-11-15T12:53:47;11.50;99.90
11095;DHT22;5601;44.490;11.400;2022-11-15T12:56:20;11.50;99.90
11095;DHT22;5601;44.490;11.400;2022-11-15T12:58:49;11.50;99.90
11095;DHT22;5601;44.490;11.400;2022-11-15T13:04:12;11.50;99.90
11095;DHT22;5601;44.490;11.400;2022-11-15T13:06:40;11.50;99.90
11095;DHT22;5601;44.490;11.400;2022-11-15T13:11:55;11.40;99.90
11095;DHT22;5601;44.490;11.400;2022-11-15T13:17:28;11.40;99.90
11095;DHT22;5601;44.490;11.400;2022-11-15T13:19:58;11.40;99.90
11095;DHT22;5601;44.490;11.400;2022-11-15T13:22:26;11.40;99.90
11095;DHT22;5601;44.490;11.400;2022-11-15T13:25:14;11.40;99.90
11095;DHT22;5601;44.490;11.400;2022-11-15T13:27:46;11.40;99.90
11095;DHT22;5601;44.490;11.400;2022-11-15T13:30:14;11.40;99.90
11095;DHT22;5601;44.490;11.400;2022-11-15T13:32:42;11.40;99.90
11095;DHT22;5601;44.490;11.400;2022-11-15T13:35:09;11.40;99.90
11095;DHT22;5601;44.490;11.400;2022-11-15T13:37:36;11.40;99.90
11095;DHT22;5601;44.490;11.400;2022-11-15T13:40:15;11.50;99.90
11095;DHT22;5601;44.490;11.400;2022-11-15T13:42:43;11.40;99.90
11095;DHT22;5601;44.490;11.400;2022-11-15T13:45:13;11.40;99.90
11095;DHT22;5601;44.490;11.400;2022-11-15T13:47:41;11.40;99.90
11095;DHT22;5601;44.490;11.400;2022-11-15T13:50:10;11.30;99.90
11095;DHT22;5601;44.490;11.400;2022-11-15T13:52:36;11.30;99.90
11095;DHT22;5601;44.490;11.400;2022-11-15T13:55:09;11.20;99.90
11095;DHT22;5601;44.490;11.400;2022-11-15T13:57:38;11.20;99.90
11095;DHT22;5601;44.490;11.400;2022-11-15T14:00:24;11.20;99.90
11095;DHT22;5601;44.490;11.400;2022-11-15T14:02:52;11.10;99.90
11095;DHT22;5601;44.490;11.400;2022-11-15T14:05:21;11.10;99.90
11095;DHT22;5601;44.490;11.400;2022-11-15T14:07:53;11.10;99.90
11095;DHT22;5601;44.490;11.400;2022-11-15T14:10:27;11.00;99.90
11095;DHT22;5601;44.490;11.400;2022-11-15T14:12:55;11.00;99.90
11095;DHT22;5601;44.490;11.400;2022-11-15T14:15:28;11.00;99.90
11095;DHT22;5601;44.490;11.400;2022-11-15T14:17:57;11.00;99.90
11095;DHT22;5601;44.490;11.400;2022-11-15T14:20:27;11.00;99.90
11095;DHT22;5601;44.490;11.400;2022-11-15T14:22:56;11.00;99.90
11095;DHT22;5601;44.490;11.400;2022-11-15T14:25:24;10.90;99.90
11095;DHT22;5601;44.490;11.400;2022-11-15T14:28:11;11.00;99.90
11095;DHT22;5601;44.490;11.400;2022-11-15T14:30:41;11.00;99.90
11095;DHT22;5601;44.490;11.400;2022-11-15T14:33:17;10.90;99.90
11095;DHT22;5601;44.490;11.400;2022-11-15T14:35:44;11.00;99.90
11095;DHT22;5601;44.490;11.400;2022-11-15T14:38:11;10.90;99.90
11095;DHT22;5601;44.490;11.400;2022-11-15T14:40:38;11.00;99.90
11095;DHT22;5601;44.490;11.400;2022-11-15T14:43:07;10.90;99.90
11095;DHT22;5601;44.490;11.400;2022-11-15T14:45:35;10.90;99.90
11095;DHT22;5601;44.490;11.400;2022-11-15T14:48:04;10.90;99.90
11095;DHT22;5601;44.490;11.400;2022-11-15T14:50:32;10.90;99.90
11095;DHT22;5601;44.490;11.400;2022-11-15T14:53:00;10.80;99.90
11095;DHT22;5601;44.490;11.400;2022-11-15T14:55:28;10.90;99.90
11095;DHT22;5601;44.490;11.400;2022-11-15T14:57:57;10.80;99.90
11095;DHT22;5601;44.490;11.400;2022-11-15T15:00:24;10.80;99.90
11095;DHT22;5601;44.490;11.400;2022-11-15T15:02:52;10.80;99.90
11095;DHT22;5601;44.490;11.400;2022-11-15T15:05:22;10.80;99.90
11095;DHT22;5601;44.490;11.400;2022-11-15T15:07:50;10.80;99.90
11095;DHT22;5601;44.490;11.400;2022-11-15T15:10:18;10.90;99.90
11095;DHT22;5601;44.490;11.400;2022-11-15T15:12:46;10.80;99.90
11095;DHT22;5601;44.490;11.400;2022-11-15T15:15:14;10.80;99.90
11095;DHT22;5601;44.490;11.400;2022-11-15T15:17:41;10.70;99.90
11095;DHT22;5601;44.490;11.400;2022-11-15T15:20:09;10.70;99.90
11095;DHT22;5601;44.490;11.400;2022-11-15T15:22:38;10.70;99.90
11095;DHT22;5601;44.490;11.400;2022-11-15T15:27:52;10.70;99.90
11095;DHT22;5601;44.490;11.400;2022-11-15T15:30:20;10.70;99.90
11095;DHT22;5601;44.490;11.400;2022-11-15T15:32:48;10.60;99.90
11095;DHT22;5601;44.490;11.400;2022-11-15T15:35:16;10.60;99.90
11095;DHT22;5601;44.490;11.400;2022-11-15T15:37:46;10.60;99.90
11095;DHT22;5601;44.490;11.400;2022-11-15T15:40:15;10.60;99.90
11095;DHT22;5601;44.490;11.400;2022-11-15T15:42:43;10.60;99.90
11095;DHT22;5601;44.490;11.400;2022-11-15T15:45:11;10.60;99.90
11095;DHT22;5601;44.490;11.400;2022-11-15T15:47:39;10.60;99.90
11095;DHT22;5601;44.490;11.400;2022-11-15T15:50:12;10.60;99.90
11095;DHT22;5601;44.490;11.400;2022-11-15T15:52:41;10.60;99.90
11095;DHT22;5601;44.490;11.400;2022-11-15T15:55:10;10.60;99.90
11095;DHT22;5601;44.490;11.400;2022-11-15T15:57:38;10.60;99.90
11095;DHT22;5601;44.490;11.400;2022-11-15T16:00:05;10.60;99.90
11095;DHT22;5601;44.490;11.400;2022-11-15T16:02:32;10.60;99.90
11095;DHT22;5601;44.490;11.400;2022-11-15T16:05:00;10.60;99.90
11095;DHT22;5601;44.490;11.400;2022-11-15T16:07:28;10.60;99.90
11095;DHT22;5601;44.490;11.400;2022-11-15T16:09:56;10.60;99.90
11095;DHT22;5601;44.490;11.400;2022-11-15T16:12:32;10.60;99.90
11095;DHT22;5601;44.490;11.400;2022-11-15T16:15:00;10.60;99.90
11095;DHT22;5601;44.490;11.400;2022-11-15T16:17:32;10.60;99.90
11095;DHT22;5601;44.490;11.400;2022-11-15T16:20:00;10.60;99.90
11095;DHT22;5601;44.490;11.400;2022-11-15T16:22:29;10.60;99.90
11095;DHT22;5601;44.490;11.400;2022-11-15T16:24:56;10.60;99.90
11095;DHT22;5601;44.490;11.400;2022-11-15T16:27:23;10.50;99.90
11095;DHT22;5601;44.490;11.400;2022-11-15T16:29:52;10.60;99.90
11095;DHT22;5601;44.490;11.400;2022-11-15T16:32:20;10.60;99.90
11095;DHT22;5601;44.490;11.400;2022-11-15T16:34:48;10.60;99.90
11095;DHT22;5601;44.490;11.400;2022-11-15T16:37:20;10.60;99.90
11095;DHT22;5601;44.490;11.400;2022-11-15T16:39:48;10.60;99.90
11095;DHT22;5601;44.490;11.400;2022-11-15T16:42:16;10.60;99.90
11095;DHT22;5601;44.490;11.400;2022-11-15T16:44:43;10.60;99.90
11095;DHT22;5601;44.490;11.400;2022-11-15T16:47:16;10.60;99.90
11095;DHT22;5601;44.490;11.400;2022-11-15T16:49:44;10.60;99.90
11095;DHT22;5601;44.490;11.400;2022-11-15T16:52:12;10.60;99.90
11095;DHT22;5601;44.490;11.400;2022-11-15T16:54:40;10.50;99.90
11095;DHT22;5601;44.490;11.400;2022-11-15T16:57:09;10.50;99.90
11095;DHT22;5601;44.490;11.400;2022-11-15T16:59:36;10.50;99.90
11095;DHT22;5601;44.490;11.400;2022-11-15T17:02:03;10.50;99.90
11095;DHT22;5601;44.490;11.400;2022-11-15T17:04:32;10.50;99.90
11095;DHT22;5601;44.490;11.400;2022-11-15T17:06:59;10.50;99.90
11095;DHT22;5601;44.490;11.400;2022-11-15T17:09:27;10.50;99.90
11095;DHT22;5601;44.490;11.400;2022-11-15T17:11:55;10.50;99.90
11095;DHT22;5601;44.490;11.400;2022-11-15T17:14:22;10.50;99.90
11095;DHT22;5601;44.490;11.400;2022-11-15T17:16:50;10.50;99.90
11095;DHT22;5601;44.490;11.400;2022-11-15T17:19:17;10.50;99.90
11095;DHT22;5601;44.490;11.400;2022-11-15T17:21:46;10.50;99.90
11095;DHT22;5601;44.490;11.400;2022-11-15T17:24:15;10.50;99.90
11095;DHT22;5601;44.490;11.400;2022-11-15T17:26:45;10.50;99.90
11095;DHT22;5601;44.490;11.400;2022-11-15T17:29:13;10.50;99.90
11095;DHT22;5601;44.490;11.400;2022-11-15T17:31:40;10.50;99.90
11095;DHT22;5601;44.490;11.400;2022-11-15T17:34:07;10.50;99.90
11095;DHT22;5601;44.490;11.400;2022-11-15T17:36:34;10.50;99.90
11095;DHT22;5601;44.490;11.400;2022-11-15T17:39:03;10.50;99.90
11095;DHT22;5601;44.490;11.400;2022-11-15T17:41:30;10.50;99.90
11095;DHT22;5601;44.490;11.400;2022-11-15T17:43:58;10.50;99.90
11095;DHT22;5601;44.490;11.400;2022-11-15T17:46:27;10.40;99.90
11095;DHT22;5601;44.490;11.400;2022-11-15T17:48:56;10.40;99.90
11095;DHT22;5601;44.490;11.400;2022-11-15T17:51:24;10.40;99.90
11095;DHT22;5601;44.490;11.400;2022-11-15T17:53:52;10.40;99.90
11095;DHT22;5601;44.490;11.400;2022-11-15T17:56:21;10.40;99.90
11095;DHT22;5601;44.490;11.400;2022-11-15T17:58:49;10.40;99.90
11095;DHT22;5601;44.490;11.400;2022-11-15T18:01:17;10.40;99.90
11095;DHT22;5601;44.490;11.400;2022-11-15T18:03:45;10.50;99.90
11095;DHT22;5601;44.490;11.400;2022-11-15T18:06:13;10.50;99.90
11095;DHT22;5601;44.490;11.400;2022-11-15T18:08:42;10.40;99.90
11095;DHT22;5601;44.490;11.400;2022-11-15T18:11:10;10.40;99.90
11095;DHT22;5601;44.490;11.400;2022-11-15T18:13:39;10.40;99.90
11095;DHT22;5601;44.490;11.400;2022-11-15T18:16:08;10.40;99.90
11095;DHT22;5601;44.490;11.400;2022-11-15T18:18:36;10.40;99.90
11095;DHT22;5601;44.490;11.400;2022-11-15T18:21:03;10.40;99.90